createdAt,value
2023-04-26T00:02:37.406Z,74.28
2023-04-26T00:05:39.473Z,74.33
2023-04-26T00:08:41.263Z,74.26
2023-04-26T00:11:42.917Z,74.32
2023-04-26T00:14:44.695Z,74.20
2023-04-26T00:17:46.529Z,74.24
2023-04-26T00:20:48.137Z,74.21
2023-04-26T00:23:50.091Z,74.19
2023-04-26T00:26:54.752Z,74.18
2023-04-26T00:29:56.498Z,74.02
2023-04-26T00:32:58.160Z,74.05
2023-04-26T00:35:59.862Z,74.09
2023-04-26T00:39:01.562Z,73.94
2023-04-26T00:42:03.466Z,74.02
2023-04-26T00:45:06.471Z,74.07
2023-04-26T00:48:08.266Z,74.08
2023-04-26T00:51:10.096Z,74.01
2023-04-26T00:54:12.904Z,74.04
2023-04-26T00:57:14.618Z,73.98
2023-04-26T01:00:16.350Z,73.83
2023-04-26T01:03:18.247Z,73.89
2023-04-26T01:06:19.989Z,73.96
2023-04-26T01:09:21.818Z,73.79
2023-04-26T01:12:24.180Z,73.79
2023-04-26T01:15:26.531Z,73.69
2023-04-26T01:18:28.584Z,73.58
2023-04-26T01:21:30.324Z,73.53
2023-04-26T01:24:32.909Z,73.40
2023-04-26T01:27:54.473Z,73.38
2023-04-26T01:30:56.169Z,73.25
2023-04-26T01:33:57.783Z,73.27
2023-04-26T01:36:59.384Z,73.22
2023-04-26T01:40:01.148Z,73.21
2023-04-26T01:43:02.793Z,73.21
2023-04-26T01:46:04.382Z,73.00
2023-04-26T01:49:06.001Z,73.00
2023-04-26T01:52:07.709Z,72.93
2023-04-26T01:55:09.855Z,72.84
2023-04-26T01:58:11.482Z,72.74
2023-04-26T02:01:13.070Z,72.70
2023-04-26T02:04:14.697Z,72.72
2023-04-26T02:07:16.629Z,72.65
2023-04-26T02:10:18.598Z,72.57
2023-04-26T02:13:20.501Z,72.63
2023-04-26T02:16:22.267Z,72.53
2023-04-26T02:19:24.099Z,72.47
2023-04-26T02:22:25.779Z,72.49
2023-04-26T02:25:27.299Z,72.46
2023-04-26T02:28:29.071Z,72.35
2023-04-26T02:31:30.790Z,72.27
2023-04-26T02:34:32.460Z,72.17
2023-04-26T02:37:34.054Z,72.01
2023-04-26T02:40:35.948Z,71.74
2023-04-26T02:43:38.000Z,72.04
2023-04-26T02:46:39.540Z,71.79
2023-04-26T02:49:41.218Z,71.62
2023-04-26T02:52:42.740Z,71.39
2023-04-26T02:55:44.674Z,71.28
2023-04-26T02:58:46.280Z,71.17
2023-04-26T03:01:47.890Z,71.26
2023-04-26T03:04:49.713Z,71.04
2023-04-26T03:07:52.025Z,71.10
2023-04-26T03:10:53.652Z,71.02
2023-04-26T03:13:55.177Z,70.90
2023-04-26T03:16:57.070Z,70.95
2023-04-26T03:19:59.997Z,70.87
2023-04-26T03:23:03.583Z,70.96
2023-04-26T03:26:05.183Z,70.75
2023-04-26T03:29:06.835Z,70.76
2023-04-26T03:32:08.613Z,70.62
2023-04-26T03:35:10.266Z,70.60
2023-04-26T03:38:12.052Z,70.55
2023-04-26T03:41:13.691Z,70.34
2023-04-26T03:44:15.721Z,70.45
2023-04-26T03:47:17.486Z,70.46
2023-04-26T03:50:19.428Z,70.39
2023-04-26T03:53:21.241Z,70.46
2023-04-26T03:56:23.043Z,70.62
2023-04-26T03:59:24.799Z,70.73
2023-04-26T04:02:26.609Z,70.61
2023-04-26T04:05:28.783Z,70.58
2023-04-26T04:08:30.453Z,70.73
2023-04-26T04:11:32.131Z,70.82
2023-04-26T04:14:33.785Z,71.02
2023-04-26T04:17:37.640Z,71.12
2023-04-26T04:20:41.708Z,70.96
2023-04-26T04:23:43.799Z,71.29
2023-04-26T04:26:45.488Z,71.28
2023-04-26T04:29:46.970Z,71.19
2023-04-26T04:32:48.564Z,71.27
2023-04-26T04:35:50.082Z,71.33
2023-04-26T04:38:51.974Z,71.07
2023-04-26T04:41:53.895Z,71.23
2023-04-26T04:44:55.558Z,71.17
2023-04-26T04:48:00.338Z,71.02
2023-04-26T04:51:01.961Z,71.21
2023-04-26T04:54:13.110Z,70.75
2023-04-26T04:57:14.716Z,70.97
2023-04-26T05:00:16.782Z,70.89
2023-04-26T05:03:18.705Z,70.65
2023-04-26T05:06:20.566Z,70.94
2023-04-26T05:09:22.069Z,70.75
2023-04-26T05:12:23.782Z,71.09
2023-04-26T05:15:26.545Z,70.64
2023-04-26T05:18:28.634Z,70.29
2023-04-26T05:21:30.397Z,69.89
2023-04-26T05:24:32.302Z,69.50
2023-04-26T05:27:34.027Z,69.05
2023-04-26T05:30:35.779Z,69.05
2023-04-26T05:33:37.646Z,68.71
2023-04-26T05:36:39.365Z,67.97
2023-04-26T05:39:41.019Z,66.99
2023-04-26T05:42:42.762Z,66.63
2023-04-26T05:45:54.534Z,66.81
2023-04-26T05:48:56.351Z,66.89
2023-04-26T05:52:01.294Z,66.30
2023-04-26T05:55:03.141Z,65.99
2023-04-26T05:58:05.278Z,65.36
2023-04-26T06:01:06.928Z,66.17
2023-04-26T06:04:09.092Z,65.58
2023-04-26T06:07:11.323Z,64.84
2023-04-26T06:10:12.992Z,64.47
2023-04-26T06:13:15.537Z,65.18
2023-04-26T06:16:17.192Z,64.86
2023-04-26T06:19:19.194Z,64.97
2023-04-26T06:22:20.852Z,64.94
2023-04-26T06:25:22.821Z,64.81
2023-04-26T06:28:25.836Z,64.06
2023-04-26T06:31:27.549Z,63.73
2023-04-26T06:34:29.287Z,64.56
2023-04-26T06:37:31.518Z,64.93
2023-04-26T06:40:33.286Z,64.19
2023-04-26T06:43:34.912Z,64.37
2023-04-26T06:46:36.581Z,65.07
2023-04-26T06:49:38.370Z,62.34
2023-04-26T06:52:40.058Z,62.52
2023-04-26T06:55:41.818Z,61.46
2023-04-26T06:59:01.348Z,60.90
2023-04-26T07:02:03.450Z,60.22
2023-04-26T07:05:05.734Z,61.21
2023-04-26T07:08:07.841Z,61.10
2023-04-26T07:11:10.636Z,60.34
2023-04-26T07:14:12.493Z,59.14
2023-04-26T07:17:14.102Z,57.89
2023-04-26T07:20:15.801Z,57.59
2023-04-26T07:23:17.410Z,57.88
2023-04-26T07:26:19.139Z,57.82
2023-04-26T07:29:20.753Z,56.72
2023-04-26T07:32:22.452Z,57.36
2023-04-26T07:35:24.401Z,56.22
2023-04-26T07:38:26.236Z,54.12
2023-04-26T07:41:27.959Z,55.66
2023-04-26T07:44:29.563Z,55.10
2023-04-26T07:47:31.357Z,55.61
2023-04-26T07:50:33.140Z,54.59
2023-04-26T07:53:35.208Z,55.09
2023-04-26T07:56:36.938Z,54.34
2023-04-26T07:59:38.618Z,54.14
2023-04-26T08:02:45.214Z,54.95
2023-04-26T08:05:47.940Z,56.09
2023-04-26T08:08:50.473Z,55.90
2023-04-26T08:11:52.444Z,54.35
2023-04-26T08:14:54.109Z,53.83
2023-04-26T08:17:55.758Z,54.24
2023-04-26T08:20:57.432Z,53.10
2023-04-26T08:23:59.173Z,53.19
2023-04-26T08:27:00.943Z,52.12
2023-04-26T08:30:02.670Z,52.85
2023-04-26T08:33:04.448Z,52.21
2023-04-26T08:36:06.504Z,51.86
2023-04-26T08:39:08.694Z,50.84
2023-04-26T08:42:16.019Z,50.92
2023-04-26T08:45:17.651Z,51.60
2023-04-26T08:48:19.968Z,50.94
2023-04-26T08:51:22.358Z,51.66
2023-04-26T08:54:24.871Z,50.93
2023-04-26T08:57:27.436Z,51.91
2023-04-26T09:00:29.611Z,51.75
2023-04-26T09:03:31.827Z,50.24
2023-04-26T09:06:33.945Z,50.66
2023-04-26T09:09:37.694Z,49.15
2023-04-26T09:12:39.591Z,48.21
2023-04-26T09:15:41.579Z,48.01
2023-04-26T09:18:49.963Z,47.46
2023-04-26T09:21:51.778Z,48.77
2023-04-26T09:24:53.427Z,48.62
2023-04-26T09:27:55.217Z,46.75
2023-04-26T09:30:56.848Z,46.49
2023-04-26T09:33:59.790Z,46.97
2023-04-26T09:37:01.398Z,47.15
2023-04-26T09:40:03.114Z,47.40
2023-04-26T09:43:12.352Z,47.98
2023-04-26T09:46:22.603Z,48.78
2023-04-26T09:49:26.763Z,47.96
2023-04-26T09:52:28.386Z,48.35
2023-04-26T09:55:35.339Z,46.76
2023-04-26T09:58:40.556Z,44.75
2023-04-26T10:01:42.174Z,44.38
2023-04-26T10:04:49.821Z,45.18
2023-04-26T10:07:51.700Z,46.80
2023-04-26T10:10:54.320Z,47.32
2023-04-26T10:13:56.107Z,48.12
2023-04-26T10:16:58.462Z,46.99
2023-04-26T10:20:00.611Z,47.23
2023-04-26T10:23:03.782Z,48.32
2023-04-26T10:26:05.775Z,48.32
2023-04-26T10:29:07.680Z,49.02
2023-04-26T10:32:10.102Z,49.03
2023-04-26T10:35:13.723Z,49.41
2023-04-26T10:38:15.664Z,50.10
2023-04-26T10:41:35.607Z,49.77
2023-04-26T10:44:38.594Z,48.25
2023-04-26T10:47:40.378Z,48.20
2023-04-26T10:51:00.572Z,48.22
2023-04-26T10:54:02.443Z,47.37
2023-04-26T10:57:04.211Z,46.56
2023-04-26T11:00:08.535Z,47.29
2023-04-26T11:03:11.040Z,47.86
2023-04-26T11:06:13.012Z,48.76
2023-04-26T11:09:36.703Z,48.44
2023-04-26T11:12:42.150Z,48.36
2023-04-26T11:15:43.805Z,48.92
2023-04-26T11:18:47.209Z,49.56
2023-04-26T11:21:49.102Z,49.87
2023-04-26T11:24:50.826Z,49.98
2023-04-26T11:27:57.418Z,49.82
2023-04-26T11:30:59.573Z,48.48
2023-04-26T11:34:04.408Z,46.84
2023-04-26T11:37:08.030Z,47.43
2023-04-26T11:40:11.182Z,46.59
2023-04-26T11:43:13.722Z,46.81
2023-04-26T11:46:15.504Z,46.79
2023-04-26T11:49:17.425Z,46.87
2023-04-26T11:52:19.091Z,46.60
2023-04-26T11:55:24.236Z,47.01
2023-04-26T11:58:25.965Z,45.77
2023-04-26T12:01:29.436Z,45.57
2023-04-26T12:04:31.447Z,46.10
2023-04-26T12:07:37.202Z,46.31
2023-04-26T12:10:38.952Z,46.90
2023-04-26T12:13:40.562Z,46.29
2023-04-26T12:16:46.755Z,48.31
2023-04-26T12:19:49.842Z,49.77
2023-04-26T12:23:08.447Z,50.15
2023-04-26T12:26:10.385Z,48.38
2023-04-26T12:29:12.040Z,47.06
2023-04-26T12:32:13.865Z,45.02
2023-04-26T12:35:15.556Z,45.25
2023-04-26T12:38:18.080Z,46.11
2023-04-26T12:41:19.738Z,45.27
2023-04-26T12:44:22.655Z,41.86
2023-04-26T12:47:24.598Z,43.14
2023-04-26T12:50:26.487Z,44.48
2023-04-26T12:53:28.138Z,45.58
2023-04-26T12:56:29.987Z,45.31
2023-04-26T12:59:31.786Z,43.54
2023-04-26T13:02:33.949Z,41.23
2023-04-26T13:05:35.775Z,41.21
2023-04-26T13:08:37.384Z,41.50
2023-04-26T13:11:39.314Z,43.27
2023-04-26T13:14:41.167Z,43.18
2023-04-26T13:17:42.956Z,44.16
2023-04-26T13:20:45.200Z,43.62
2023-04-26T13:23:46.842Z,44.97
2023-04-26T13:26:48.497Z,43.80
2023-04-26T13:29:50.465Z,44.24
2023-04-26T13:32:52.167Z,43.86
2023-04-26T13:35:54.109Z,43.19
2023-04-26T13:38:55.880Z,41.82
2023-04-26T13:41:59.137Z,41.43
2023-04-26T13:45:00.825Z,41.73
2023-04-26T13:48:02.595Z,41.63
2023-04-26T13:51:07.032Z,42.40
2023-04-26T13:54:09.030Z,42.45
2023-04-26T13:57:10.646Z,38.91
2023-04-26T14:00:13.378Z,40.53
2023-04-26T14:03:15.325Z,41.08
2023-04-26T14:06:17.205Z,42.04
2023-04-26T14:09:19.172Z,43.04
2023-04-26T14:12:20.770Z,42.50
2023-04-26T14:15:22.461Z,42.18
2023-04-26T14:18:24.201Z,42.19
2023-04-26T14:21:25.901Z,42.04
2023-04-26T14:24:27.523Z,43.07
2023-04-26T14:27:29.299Z,43.47
2023-04-26T14:30:30.967Z,43.24
2023-04-26T14:33:32.763Z,41.94
2023-04-26T14:36:34.803Z,40.03
2023-04-26T14:39:36.676Z,39.90
2023-04-26T14:42:38.268Z,40.89
2023-04-26T14:45:44.852Z,41.43
2023-04-26T14:48:46.924Z,41.36
2023-04-26T14:51:48.760Z,41.08
2023-04-26T14:54:51.499Z,37.23
2023-04-26T14:57:53.364Z,35.98
2023-04-26T15:00:55.027Z,36.89
2023-04-26T15:03:59.312Z,36.62
2023-04-26T15:07:01.980Z,36.46
2023-04-26T15:10:04.803Z,37.77
2023-04-26T15:13:06.495Z,39.46
2023-04-26T15:16:08.450Z,40.11
2023-04-26T15:19:10.109Z,40.63
2023-04-26T15:22:11.998Z,41.62
2023-04-26T15:25:13.810Z,41.19
2023-04-26T15:28:16.583Z,41.92
2023-04-26T15:31:20.841Z,42.48
2023-04-26T15:34:22.559Z,40.68
2023-04-26T15:37:24.287Z,41.48
2023-04-26T15:40:25.954Z,41.84
2023-04-26T15:43:27.538Z,41.84
2023-04-26T15:46:29.227Z,41.68
2023-04-26T15:49:31.035Z,41.71
2023-04-26T15:52:38.576Z,42.60
2023-04-26T15:55:40.961Z,42.84
2023-04-26T15:58:43.664Z,42.53
2023-04-26T16:01:45.335Z,42.68
2023-04-26T16:04:47.159Z,42.86
2023-04-26T16:07:48.988Z,43.04
2023-04-26T16:10:50.757Z,44.00
2023-04-26T16:13:52.513Z,44.14
2023-04-26T16:16:54.275Z,44.50
2023-04-26T16:19:56.100Z,44.44
2023-04-26T16:22:57.792Z,44.83
2023-04-26T16:25:59.616Z,45.11
2023-04-26T16:29:01.487Z,44.89
2023-04-26T16:32:03.340Z,44.61
2023-04-26T16:35:05.366Z,44.90
2023-04-26T16:38:07.118Z,44.98
2023-04-26T16:41:08.752Z,45.47
2023-04-26T16:44:10.472Z,46.06
2023-04-26T16:47:12.148Z,46.47
2023-04-26T16:50:14.188Z,46.68
2023-04-26T16:53:15.794Z,46.71
2023-04-26T16:56:17.437Z,47.01
2023-04-26T16:59:19.525Z,47.21
2023-04-26T17:02:21.227Z,47.44
2023-04-26T17:05:23.440Z,47.76
2023-04-26T17:08:25.115Z,48.03
2023-04-26T17:11:26.931Z,48.25
2023-04-26T17:14:28.548Z,48.48
2023-04-26T17:17:30.083Z,48.71
2023-04-26T17:20:33.142Z,48.96
2023-04-26T17:23:34.983Z,49.03
2023-04-26T17:26:36.651Z,49.18
2023-04-26T17:29:38.250Z,49.20
2023-04-26T17:32:39.764Z,49.45
2023-04-26T17:35:41.493Z,49.71
2023-04-26T17:38:43.699Z,50.17
2023-04-26T17:41:45.380Z,50.36
2023-04-26T17:44:46.885Z,50.31
2023-04-26T17:47:48.592Z,50.57
2023-04-26T17:50:50.436Z,50.86
2023-04-26T17:53:52.228Z,50.84
2023-04-26T17:56:53.742Z,51.10
2023-04-26T17:59:55.373Z,51.15
2023-04-26T18:02:57.141Z,51.29
2023-04-26T18:05:58.982Z,51.49
2023-04-26T18:09:00.526Z,51.62
2023-04-26T18:12:02.168Z,51.88
2023-04-26T18:15:03.891Z,52.01
2023-04-26T18:18:05.916Z,52.05
2023-04-26T18:21:07.648Z,52.21
2023-04-26T18:24:09.747Z,52.16
2023-04-26T18:27:11.410Z,52.38
2023-04-26T18:30:13.308Z,52.45
2023-04-26T18:33:15.014Z,52.47
2023-04-26T18:36:16.967Z,52.45
2023-04-26T18:39:18.658Z,52.26
2023-04-26T18:42:20.332Z,52.50
2023-04-26T18:45:21.856Z,52.79
2023-04-26T18:48:23.475Z,53.06
2023-04-26T18:51:24.975Z,52.98
2023-04-26T18:54:26.658Z,53.08
2023-04-26T18:57:28.260Z,52.78
2023-04-26T19:00:29.948Z,53.19
2023-04-26T19:03:31.684Z,53.32
2023-04-26T19:06:33.410Z,53.26
2023-04-26T19:09:46.623Z,53.35
2023-04-26T19:12:55.240Z,53.55
2023-04-26T19:15:56.863Z,53.70
2023-04-26T19:18:58.631Z,53.81
2023-04-26T19:22:00.317Z,53.91
2023-04-26T19:25:01.906Z,53.91
2023-04-26T19:28:03.612Z,54.03
2023-04-26T19:31:05.600Z,54.30
2023-04-26T19:34:07.295Z,54.32
2023-04-26T19:37:08.841Z,54.57
2023-04-26T19:40:10.742Z,54.46
2023-04-26T19:43:12.480Z,54.56
2023-04-26T19:46:14.355Z,54.90
2023-04-26T19:49:16.093Z,54.94
2023-04-26T19:52:17.746Z,55.51
2023-04-26T19:55:19.445Z,55.84
2023-04-26T19:58:21.068Z,56.49
2023-04-26T20:01:22.749Z,55.77
2023-04-26T20:04:24.736Z,55.76
2023-04-26T20:07:26.811Z,55.92
2023-04-26T20:10:32.546Z,56.05
2023-04-26T20:13:34.505Z,56.61
2023-04-26T20:16:36.300Z,56.54
2023-04-26T20:19:37.852Z,56.55
2023-04-26T20:22:40.442Z,56.96
2023-04-26T20:25:42.108Z,57.04
2023-04-26T20:28:43.616Z,57.14
2023-04-26T20:31:45.449Z,56.92
2023-04-26T20:34:47.182Z,57.44
2023-04-26T20:37:48.872Z,57.90
2023-04-26T20:40:50.430Z,57.69
2023-04-26T20:43:52.283Z,58.01
2023-04-26T20:46:53.830Z,57.87
2023-04-26T20:49:55.706Z,58.10
2023-04-26T20:52:57.484Z,58.14
2023-04-26T20:55:59.134Z,57.99
2023-04-26T20:59:00.777Z,58.42
2023-04-26T21:02:02.670Z,58.24
2023-04-26T21:05:05.287Z,58.43
2023-04-26T21:08:07.031Z,58.88
2023-04-26T21:11:09.103Z,58.69
2023-04-26T21:14:10.978Z,59.05
2023-04-26T21:17:12.739Z,58.93
2023-04-26T21:20:14.451Z,59.25
2023-04-26T21:23:16.257Z,59.18
2023-04-26T21:26:18.149Z,59.12
2023-04-26T21:29:19.990Z,59.20
2023-04-26T21:32:21.588Z,59.08
2023-04-26T21:35:23.373Z,59.66
2023-04-26T21:38:25.371Z,59.74
2023-04-26T21:41:27.266Z,59.77
2023-04-26T21:44:29.078Z,59.70
2023-04-26T21:47:30.684Z,59.63
2023-04-26T21:50:32.408Z,59.63
2023-04-26T21:53:33.990Z,59.80
2023-04-26T21:56:35.768Z,60.27
2023-04-26T21:59:37.291Z,60.02
2023-04-26T22:02:39.219Z,60.36
2023-04-26T22:05:41.228Z,60.23
2023-04-26T22:08:43.003Z,60.34
2023-04-26T22:11:44.704Z,60.30
2023-04-26T22:14:46.306Z,60.79
2023-04-26T22:17:48.091Z,60.61
2023-04-26T22:20:49.899Z,60.70
2023-04-26T22:23:51.658Z,60.86
2023-04-26T22:26:53.234Z,60.87
2023-04-26T22:29:54.976Z,61.11
2023-04-26T22:32:56.832Z,61.16
2023-04-26T22:35:58.542Z,61.09
2023-04-26T22:39:00.136Z,61.07
2023-04-26T22:42:01.837Z,61.25
2023-04-26T22:45:03.477Z,61.31
2023-04-26T22:48:05.310Z,61.65
2023-04-26T22:51:07.093Z,61.79
2023-04-26T22:54:08.656Z,62.01
2023-04-26T22:57:10.422Z,62.22
2023-04-26T23:00:12.956Z,62.31
2023-04-26T23:03:14.760Z,62.67
2023-04-26T23:06:16.796Z,63.31
2023-04-26T23:09:18.397Z,63.01
2023-04-26T23:12:20.221Z,63.05
2023-04-26T23:15:22.250Z,63.14
2023-04-26T23:18:24.184Z,62.93
2023-04-26T23:21:25.920Z,63.09
2023-04-26T23:24:27.556Z,63.21
2023-04-26T23:27:29.297Z,63.22
2023-04-26T23:30:31.182Z,62.87
2023-04-26T23:33:33.100Z,63.36
2023-04-26T23:36:34.687Z,63.18
2023-04-26T23:39:36.549Z,63.39
2023-04-26T23:42:38.315Z,63.37
2023-04-26T23:45:40.591Z,63.49
2023-04-26T23:48:42.715Z,63.36
2023-04-26T23:51:44.289Z,63.49
2023-04-26T23:54:46.066Z,63.74
2023-04-26T23:57:47.689Z,63.72
